createdAt,value
2023-02-11T00:02:27.943Z,1.53
2023-02-11T00:04:55.641Z,1.64
2023-02-11T00:07:23.371Z,1.60
2023-02-11T00:09:52.568Z,1.57
2023-02-11T00:12:20.768Z,1.61
2023-02-11T00:14:48.808Z,1.64
2023-02-11T00:17:17.044Z,1.66
2023-02-11T00:19:45.215Z,1.65
2023-02-11T00:22:12.928Z,1.69
2023-02-11T00:24:41.436Z,1.64
2023-02-11T00:27:15.518Z,1.67
2023-02-11T00:29:47.894Z,1.75
2023-02-11T00:32:25.460Z,1.70
2023-02-11T00:34:55.157Z,1.86
2023-02-11T00:37:23.649Z,1.82
2023-02-11T00:39:52.696Z,1.85
2023-02-11T00:42:21.850Z,1.91
2023-02-11T00:44:50.544Z,2.02
2023-02-11T00:47:18.726Z,1.85
2023-02-11T00:49:47.159Z,1.93
2023-02-11T00:52:15.633Z,2.04
2023-02-11T00:54:44.383Z,2.01
2023-02-11T00:57:12.648Z,2.05
2023-02-11T00:59:42.148Z,1.96
2023-02-11T01:02:11.805Z,2.04
2023-02-11T01:04:41.239Z,1.96
2023-02-11T01:07:09.298Z,2.06
2023-02-11T01:09:39.716Z,2.12
2023-02-11T01:12:07.869Z,2.20
2023-02-11T01:14:35.678Z,2.09
2023-02-11T01:17:05.660Z,1.98
2023-02-11T01:19:34.172Z,2.18
2023-02-11T01:22:02.017Z,2.20
2023-02-11T01:24:29.704Z,2.03
2023-02-11T01:26:57.829Z,2.06
2023-02-11T01:29:25.683Z,2.01
2023-02-11T01:31:53.436Z,1.95
2023-02-11T01:34:22.416Z,2.09
2023-02-11T01:36:50.030Z,1.94
2023-02-11T01:39:17.873Z,2.04
2023-02-11T01:41:45.490Z,2.01
2023-02-11T01:44:24.396Z,1.91
2023-02-11T01:46:52.635Z,2.14
2023-02-11T01:49:24.720Z,2.13
2023-02-11T01:51:56.517Z,2.18
2023-02-11T01:54:45.736Z,2.11
2023-02-11T01:57:25.893Z,2.13
2023-02-11T02:00:00.731Z,2.00
2023-02-11T02:02:33.809Z,2.00
2023-02-11T02:05:06.345Z,1.99
2023-02-11T02:07:37.609Z,2.10
2023-02-11T02:10:08.947Z,2.16
2023-02-11T02:12:36.545Z,2.12
2023-02-11T02:15:19.704Z,2.09
2023-02-11T02:17:55.722Z,2.17
2023-02-11T02:21:01.400Z,2.13
2023-02-11T02:23:47.156Z,2.05
2023-02-11T02:26:34.452Z,2.17
2023-02-11T02:29:38.151Z,2.15
2023-02-11T02:32:21.913Z,2.00
2023-02-11T02:34:52.211Z,2.15
2023-02-11T02:37:22.971Z,2.06
2023-02-11T02:39:51.399Z,2.09
2023-02-11T02:42:19.622Z,2.33
2023-02-11T02:44:49.681Z,2.24
2023-02-11T02:47:18.660Z,2.28
2023-02-11T02:49:46.301Z,2.25
2023-02-11T02:52:23.628Z,2.14
2023-02-11T02:55:10.302Z,2.13
2023-02-11T02:57:44.963Z,2.22
2023-02-11T03:00:18.203Z,2.26
2023-02-11T03:02:55.193Z,2.19
2023-02-11T03:05:28.739Z,2.20
2023-02-11T03:07:59.640Z,2.34
2023-02-11T03:10:30.048Z,2.34
2023-02-11T03:12:58.412Z,2.31
2023-02-11T03:15:28.455Z,2.24
2023-02-11T03:17:59.992Z,2.25
2023-02-11T03:20:28.628Z,1.97
2023-02-11T03:22:58.634Z,2.25
2023-02-11T03:25:30.539Z,2.24
2023-02-11T03:28:04.255Z,2.31
2023-02-11T03:30:37.044Z,2.32
2023-02-11T03:33:09.939Z,2.29
2023-02-11T03:35:40.845Z,2.32
2023-02-11T03:38:10.677Z,2.39
2023-02-11T03:40:40.131Z,2.28
2023-02-11T03:43:10.397Z,2.29
2023-02-11T03:45:43.698Z,2.28
2023-02-11T03:48:17.000Z,2.39
2023-02-11T03:50:45.804Z,2.38
2023-02-11T03:53:14.315Z,2.33
2023-02-11T03:55:42.613Z,2.26
2023-02-11T03:58:10.387Z,2.37
2023-02-11T04:00:40.906Z,2.28
2023-02-11T04:03:08.866Z,2.33
2023-02-11T04:05:38.129Z,1.95
2023-02-11T04:08:06.151Z,2.12
2023-02-11T04:10:34.022Z,2.14
2023-02-11T04:13:01.679Z,2.26
2023-02-11T04:15:29.286Z,2.12
2023-02-11T04:17:56.926Z,2.00
2023-02-11T04:20:24.489Z,2.03
2023-02-11T04:22:53.425Z,1.98
2023-02-11T04:25:21.332Z,2.00
2023-02-11T04:27:48.930Z,2.05
2023-02-11T04:30:16.514Z,2.03
2023-02-11T04:32:44.091Z,1.99
2023-02-11T04:35:11.714Z,2.05
2023-02-11T04:37:39.306Z,2.05
2023-02-11T04:40:09.618Z,2.04
2023-02-11T04:42:37.240Z,1.93
2023-02-11T04:45:05.433Z,1.97
2023-02-11T04:47:32.977Z,1.89
2023-02-11T04:50:00.735Z,1.93
2023-02-11T04:52:28.415Z,2.05
2023-02-11T04:54:55.992Z,2.20
2023-02-11T04:57:24.984Z,2.15
2023-02-11T04:59:52.640Z,1.98
2023-02-11T05:02:20.270Z,1.96
2023-02-11T05:04:48.027Z,1.92
2023-02-11T05:07:15.646Z,1.88
2023-02-11T05:09:43.310Z,1.92
2023-02-11T05:12:11.025Z,1.86
2023-02-11T05:14:40.129Z,1.98
2023-02-11T05:17:07.692Z,1.95
2023-02-11T05:19:35.252Z,1.87
2023-02-11T05:22:03.760Z,1.86
2023-02-11T05:24:32.294Z,1.84
2023-02-11T05:27:00.002Z,1.91
2023-02-11T05:29:27.615Z,1.99
2023-02-11T05:31:56.610Z,1.94
2023-02-11T05:34:24.201Z,1.99
2023-02-11T05:36:51.778Z,2.03
2023-02-11T05:39:19.411Z,2.03
2023-02-11T05:41:47.018Z,2.00
2023-02-11T05:44:14.663Z,2.03
2023-02-11T05:46:42.321Z,1.98
2023-02-11T05:49:11.319Z,1.90
2023-02-11T05:51:39.084Z,1.98
2023-02-11T05:54:06.889Z,1.89
2023-02-11T05:56:34.460Z,1.89
2023-02-11T05:59:02.028Z,1.87
2023-02-11T06:01:30.479Z,1.87
2023-02-11T06:03:58.191Z,1.94
2023-02-11T06:06:27.524Z,1.84
2023-02-11T06:08:56.363Z,2.08
2023-02-11T06:11:23.978Z,2.05
2023-02-11T06:13:51.888Z,2.01
2023-02-11T06:16:19.538Z,2.03
2023-02-11T06:18:47.168Z,1.94
2023-02-11T06:21:14.822Z,1.88
2023-02-11T06:23:44.073Z,1.92
2023-02-11T06:26:18.370Z,1.87
2023-02-11T06:28:46.329Z,1.94
2023-02-11T06:31:14.311Z,1.84
2023-02-11T06:33:42.212Z,1.91
2023-02-11T06:36:14.097Z,1.84
2023-02-11T06:38:43.206Z,1.83
2023-02-11T06:41:11.412Z,1.82
2023-02-11T06:43:39.559Z,1.82
2023-02-11T06:46:07.455Z,1.82
2023-02-11T06:48:35.477Z,1.81
2023-02-11T06:51:04.689Z,1.78
2023-02-11T06:53:32.407Z,1.80
2023-02-11T06:56:05.142Z,1.85
2023-02-11T06:58:32.869Z,1.94
2023-02-11T07:01:00.986Z,1.99
2023-02-11T07:03:28.617Z,1.90
2023-02-11T07:05:56.336Z,1.93
2023-02-11T07:08:23.949Z,1.98
2023-02-11T07:10:51.556Z,1.93
2023-02-11T07:13:20.534Z,1.93
2023-02-11T07:15:48.244Z,1.96
2023-02-11T07:18:16.022Z,1.98
2023-02-11T07:20:43.679Z,1.99
2023-02-11T07:23:11.309Z,1.97
2023-02-11T07:25:39.143Z,2.02
2023-02-11T07:28:06.990Z,2.03
2023-02-11T07:30:36.072Z,2.06
2023-02-11T07:33:03.752Z,2.11
2023-02-11T07:35:31.310Z,2.19
2023-02-11T07:37:58.876Z,2.26
2023-02-11T07:40:26.459Z,2.25
2023-02-11T07:42:54.011Z,2.39
2023-02-11T07:45:21.629Z,2.51
2023-02-11T07:47:50.591Z,2.59
2023-02-11T07:50:18.320Z,2.62
2023-02-11T07:52:46.130Z,2.65
2023-02-11T07:55:13.736Z,2.70
2023-02-11T07:57:41.560Z,2.67
2023-02-11T08:00:10.259Z,2.70
2023-02-11T08:02:38.056Z,2.75
2023-02-11T08:05:07.811Z,2.75
2023-02-11T08:07:35.511Z,2.65
2023-02-11T08:10:03.093Z,2.71
2023-02-11T08:12:31.433Z,2.78
2023-02-11T08:14:59.110Z,2.69
2023-02-11T08:17:26.921Z,2.78
2023-02-11T08:19:54.715Z,2.70
2023-02-11T08:22:23.778Z,2.67
2023-02-11T08:24:52.474Z,2.66
2023-02-11T08:27:20.368Z,2.65
2023-02-11T08:29:48.046Z,2.80
2023-02-11T08:32:15.770Z,2.94
2023-02-11T08:34:43.614Z,3.09
2023-02-11T08:37:11.319Z,3.22
2023-02-11T08:39:40.287Z,3.25
2023-02-11T08:42:08.018Z,3.32
2023-02-11T08:44:35.619Z,3.56
2023-02-11T08:47:03.370Z,3.76
2023-02-11T08:49:32.292Z,3.48
2023-02-11T08:52:03.797Z,3.89
2023-02-11T08:54:32.168Z,3.70
2023-02-11T08:57:02.394Z,3.74
2023-02-11T08:59:30.189Z,3.79
2023-02-11T09:01:58.014Z,3.73
2023-02-11T09:04:25.619Z,3.70
2023-02-11T09:06:53.357Z,3.77
2023-02-11T09:09:20.952Z,4.01
2023-02-11T09:11:48.611Z,4.10
2023-02-11T09:14:20.842Z,4.21
2023-02-11T09:16:49.023Z,4.13
2023-02-11T09:19:17.158Z,4.30
2023-02-11T09:21:44.862Z,4.48
2023-02-11T09:24:12.824Z,4.53
2023-02-11T09:26:43.727Z,4.56
2023-02-11T09:29:11.458Z,4.71
2023-02-11T09:31:40.518Z,4.86
2023-02-11T09:34:08.823Z,4.97
2023-02-11T09:36:38.563Z,5.20
2023-02-11T09:39:07.923Z,5.25
2023-02-11T09:42:15.471Z,5.23
2023-02-11T09:44:46.179Z,5.21
2023-02-11T09:47:24.607Z,5.11
2023-02-11T09:49:54.100Z,5.20
2023-02-11T09:52:27.283Z,5.38
2023-02-11T09:54:57.013Z,5.57
2023-02-11T09:57:34.737Z,5.35
2023-02-11T10:00:02.921Z,5.26
2023-02-11T10:02:44.919Z,5.27
2023-02-11T10:05:32.261Z,5.40
2023-02-11T10:08:04.715Z,5.51
2023-02-11T10:10:47.693Z,5.76
2023-02-11T10:13:32.289Z,5.87
2023-02-11T10:16:07.084Z,6.03
2023-02-11T10:18:50.060Z,5.91
2023-02-11T10:21:22.904Z,5.87
2023-02-11T10:23:53.888Z,6.05
2023-02-11T10:26:21.589Z,5.93
2023-02-11T10:28:52.141Z,5.85
2023-02-11T10:31:24.682Z,6.06
2023-02-11T10:33:57.830Z,6.09
2023-02-11T10:36:29.058Z,6.14
2023-02-11T10:38:56.732Z,6.11
2023-02-11T10:41:29.840Z,6.10
2023-02-11T10:43:58.026Z,5.94
2023-02-11T10:46:30.246Z,6.01
2023-02-11T10:48:59.705Z,6.11
2023-02-11T10:51:28.953Z,6.08
2023-02-11T10:54:14.368Z,6.09
2023-02-11T10:56:46.204Z,6.21
2023-02-11T10:59:21.389Z,6.05
2023-02-11T11:01:51.802Z,5.89
2023-02-11T11:04:38.657Z,5.85
2023-02-11T11:07:16.132Z,5.95
2023-02-11T11:09:48.076Z,5.82
2023-02-11T11:12:30.232Z,6.02
2023-02-11T11:14:59.354Z,6.00
2023-02-11T11:17:29.154Z,5.75
2023-02-11T11:20:15.406Z,6.17
2023-02-11T11:22:43.777Z,6.03
2023-02-11T11:25:23.295Z,6.04
2023-02-11T11:27:51.868Z,6.15
2023-02-11T11:30:21.048Z,6.26
2023-02-11T11:32:48.833Z,6.26
2023-02-11T11:35:26.588Z,6.36
2023-02-11T11:37:56.110Z,6.18
2023-02-11T11:40:25.123Z,6.39
2023-02-11T11:43:08.508Z,6.38
2023-02-11T11:45:36.118Z,6.34
2023-02-11T11:48:07.162Z,6.55
2023-02-11T11:50:38.936Z,6.52
2023-02-11T11:53:08.814Z,6.69
2023-02-11T11:55:41.627Z,6.91
2023-02-11T11:58:14.528Z,7.26
2023-02-11T12:00:45.905Z,7.34
2023-02-11T12:03:28.589Z,7.58
2023-02-11T12:06:09.307Z,7.61
2023-02-11T12:08:42.769Z,7.36
2023-02-11T12:11:14.321Z,7.45
2023-02-11T12:13:54.365Z,7.11
2023-02-11T12:16:31.870Z,7.06
2023-02-11T12:19:29.064Z,7.12
2023-02-11T12:22:04.362Z,7.10
2023-02-11T12:24:46.385Z,6.98
2023-02-11T12:27:19.180Z,7.06
2023-02-11T12:29:56.896Z,6.98
2023-02-11T12:32:32.023Z,6.90
2023-02-11T12:35:17.137Z,6.93
2023-02-11T12:38:08.216Z,6.95
2023-02-11T12:40:42.750Z,7.03
2023-02-11T12:43:18.886Z,6.97
2023-02-11T12:46:03.465Z,6.93
2023-02-11T12:48:45.967Z,6.99
2023-02-11T12:51:19.665Z,7.00
2023-02-11T12:54:01.164Z,7.07
2023-02-11T12:56:33.052Z,7.10
2023-02-11T12:59:01.894Z,7.22
2023-02-11T13:01:32.693Z,7.13
2023-02-11T13:04:08.574Z,7.28
2023-02-11T13:06:41.377Z,7.42
2023-02-11T13:09:16.602Z,7.25
2023-02-11T13:11:51.650Z,7.40
2023-02-11T13:14:25.639Z,7.30
2023-02-11T13:16:54.063Z,7.25
2023-02-11T13:19:26.661Z,7.42
2023-02-11T13:22:06.509Z,7.20
2023-02-11T13:24:44.212Z,7.20
2023-02-11T13:27:37.775Z,7.21
2023-02-11T13:30:32.520Z,7.21
2023-02-11T13:33:20.236Z,7.38
2023-02-11T13:35:51.227Z,7.31
2023-02-11T13:38:21.505Z,7.37
2023-02-11T13:41:03.057Z,7.31
2023-02-11T13:43:32.707Z,7.40
2023-02-11T13:46:01.767Z,7.35
2023-02-11T13:48:33.207Z,7.45
2023-02-11T13:51:04.731Z,7.36
2023-02-11T13:56:10.025Z,7.49
2023-02-11T13:58:40.346Z,7.45
2023-02-11T14:01:08.836Z,7.38
2023-02-11T14:03:56.220Z,7.29
2023-02-11T14:06:46.354Z,7.48
2023-02-11T14:09:41.944Z,7.48
2023-02-11T14:12:35.447Z,7.43
2023-02-11T14:15:19.539Z,7.34
2023-02-11T14:17:47.296Z,7.30
2023-02-11T14:20:51.241Z,7.39
2023-02-11T14:23:27.213Z,7.28
2023-02-11T14:26:23.780Z,7.37
2023-02-11T14:28:55.753Z,7.39
2023-02-11T14:31:25.650Z,7.30
2023-02-11T14:34:00.539Z,7.22
2023-02-11T14:36:55.782Z,7.20
2023-02-11T14:39:31.380Z,7.19
2023-02-11T14:42:01.397Z,7.20
2023-02-11T14:44:32.025Z,7.28
2023-02-11T14:46:59.836Z,7.24
2023-02-11T14:49:29.045Z,7.18
2023-02-11T14:51:59.149Z,7.30
2023-02-11T14:54:28.867Z,7.23
2023-02-11T14:57:12.488Z,7.18
2023-02-11T14:59:58.829Z,7.17
2023-02-11T15:02:31.395Z,7.12
2023-02-11T15:05:16.071Z,7.15
2023-02-11T15:07:49.107Z,7.09
2023-02-11T15:10:19.843Z,7.09
2023-02-11T15:12:49.911Z,6.86
2023-02-11T15:15:19.175Z,7.01
2023-02-11T15:17:46.977Z,6.95
2023-02-11T15:20:21.211Z,6.86
2023-02-11T15:22:50.571Z,6.85
2023-02-11T15:25:19.945Z,6.75
2023-02-11T15:27:49.198Z,6.77
2023-02-11T15:30:28.439Z,6.75
2023-02-11T15:32:58.910Z,6.77
2023-02-11T15:35:28.954Z,6.71
2023-02-11T15:37:57.838Z,6.76
2023-02-11T15:40:28.401Z,6.68
2023-02-11T15:42:58.771Z,6.62
2023-02-11T15:45:30.554Z,6.73
2023-02-11T15:48:01.305Z,6.66
2023-02-11T15:50:30.774Z,6.64
2023-02-11T15:53:01.982Z,6.64
2023-02-11T15:55:30.204Z,6.59
2023-02-11T15:57:59.124Z,6.56
2023-02-11T16:00:38.011Z,6.52
2023-02-11T16:03:05.930Z,6.57
2023-02-11T16:05:35.366Z,6.54
2023-02-11T16:08:18.949Z,6.49
2023-02-11T16:10:58.236Z,6.40
2023-02-11T16:13:28.127Z,6.35
2023-02-11T16:15:58.752Z,6.30
2023-02-11T16:18:39.863Z,6.31
2023-02-11T16:21:17.354Z,6.22
2023-02-11T16:23:51.244Z,6.23
2023-02-11T16:26:23.804Z,6.27
2023-02-11T16:28:52.177Z,6.17
2023-02-11T16:31:21.402Z,6.07
2023-02-11T16:33:49.093Z,6.19
2023-02-11T16:36:18.251Z,5.94
2023-02-11T16:38:45.929Z,6.13
2023-02-11T16:41:14.299Z,5.95
2023-02-11T16:43:41.972Z,5.90
2023-02-11T16:46:11.173Z,5.93
2023-02-11T16:48:40.284Z,5.91
2023-02-11T16:51:09.639Z,5.91
2023-02-11T16:53:37.325Z,5.87
2023-02-11T16:56:05.410Z,5.96
2023-02-11T16:58:33.668Z,5.85
2023-02-11T17:01:01.811Z,5.77
2023-02-11T17:03:30.229Z,5.94
2023-02-11T17:06:02.804Z,6.00
2023-02-11T17:08:30.660Z,5.98
2023-02-11T17:10:58.315Z,5.88
2023-02-11T17:13:25.950Z,5.66
2023-02-11T17:15:54.030Z,5.78
2023-02-11T17:18:21.919Z,5.97
2023-02-11T17:20:50.086Z,5.87
2023-02-11T17:23:19.137Z,5.77
2023-02-11T17:25:46.855Z,5.85
2023-02-11T17:28:14.538Z,5.82
2023-02-11T17:30:43.978Z,5.86
2023-02-11T17:33:11.660Z,5.82
2023-02-11T17:35:40.857Z,5.82
2023-02-11T17:38:08.512Z,5.70
2023-02-11T17:40:37.489Z,5.86
2023-02-11T17:43:05.226Z,5.79
2023-02-11T17:45:33.055Z,5.82
2023-02-11T17:48:00.998Z,5.69
2023-02-11T17:50:29.522Z,5.80
2023-02-11T17:52:57.765Z,5.74
2023-02-11T17:55:25.645Z,5.67
2023-02-11T17:57:55.354Z,5.47
2023-02-11T18:00:23.604Z,5.70
2023-02-11T18:02:51.228Z,5.61
2023-02-11T18:05:18.962Z,5.70
2023-02-11T18:07:48.004Z,5.69
2023-02-11T18:10:15.826Z,5.63
2023-02-11T18:12:43.625Z,5.64
2023-02-11T18:15:13.322Z,5.67
2023-02-11T18:17:41.026Z,5.49
2023-02-11T18:20:09.913Z,5.56
2023-02-11T18:22:40.168Z,5.53
2023-02-11T18:25:09.391Z,5.41
2023-02-11T18:27:37.229Z,5.31
2023-02-11T18:30:05.422Z,5.50
2023-02-11T18:32:34.474Z,5.55
2023-02-11T18:35:02.205Z,5.53
2023-02-11T18:37:29.785Z,5.59
2023-02-11T18:39:57.404Z,5.57
2023-02-11T18:42:25.035Z,5.53
2023-02-11T18:44:52.745Z,5.48
2023-02-11T18:47:20.442Z,5.54
2023-02-11T18:49:49.392Z,5.22
2023-02-11T18:52:16.974Z,5.40
2023-02-11T18:54:44.672Z,5.46
2023-02-11T18:57:12.333Z,5.49
2023-02-11T18:59:40.032Z,5.37
2023-02-11T19:02:07.734Z,5.47
2023-02-11T19:04:37.199Z,5.46
2023-02-11T19:07:06.329Z,5.45
2023-02-11T19:09:33.895Z,5.39
2023-02-11T19:12:02.232Z,5.46
2023-02-11T19:14:31.995Z,5.49
2023-02-11T19:17:01.241Z,5.42
2023-02-11T19:19:31.331Z,5.40
2023-02-11T19:22:00.245Z,5.39
2023-02-11T19:24:30.357Z,5.45
2023-02-11T19:26:59.646Z,5.44
2023-02-11T19:29:28.041Z,5.54
2023-02-11T19:31:56.329Z,5.51
2023-02-11T19:34:24.140Z,5.42
2023-02-11T19:36:52.048Z,5.45
2023-02-11T19:39:19.729Z,5.48
2023-02-11T19:41:48.795Z,5.50
2023-02-11T19:44:16.696Z,5.42
2023-02-11T19:46:45.881Z,5.39
2023-02-11T19:49:16.018Z,5.38
2023-02-11T19:51:43.596Z,5.37
2023-02-11T19:54:11.261Z,5.41
2023-02-11T19:56:38.937Z,5.41
2023-02-11T19:59:09.111Z,5.42
2023-02-11T20:01:37.428Z,5.45
2023-02-11T20:04:05.228Z,5.41
2023-02-11T20:06:33.957Z,5.40
2023-02-11T20:09:02.646Z,5.43
2023-02-11T20:11:31.711Z,5.45
2023-02-11T20:13:59.668Z,5.51
2023-02-11T20:16:46.179Z,5.50
2023-02-11T20:19:17.995Z,5.48
2023-02-11T20:21:47.079Z,5.53
2023-02-11T20:24:15.934Z,5.45
2023-02-11T20:26:48.165Z,5.45
2023-02-11T20:29:16.304Z,5.45
2023-02-11T20:31:45.676Z,5.34
2023-02-11T20:34:13.608Z,5.48
2023-02-11T20:36:41.947Z,5.41
2023-02-11T20:39:10.016Z,5.33
2023-02-11T20:41:39.851Z,5.35
2023-02-11T20:44:09.293Z,5.34
2023-02-11T20:46:39.911Z,5.27
2023-02-11T20:49:10.551Z,5.25
2023-02-11T20:51:38.292Z,5.27
2023-02-11T20:54:07.132Z,5.36
2023-02-11T20:56:36.520Z,5.39
2023-02-11T20:59:05.049Z,5.39
2023-02-11T21:01:34.756Z,5.30
2023-02-11T21:04:03.682Z,5.37
2023-02-11T21:06:34.976Z,5.38
2023-02-11T21:09:02.790Z,5.36
2023-02-11T21:11:31.106Z,5.27
2023-02-11T21:14:02.257Z,5.25
2023-02-11T21:16:30.150Z,5.17
2023-02-11T21:18:58.023Z,5.23
2023-02-11T21:21:26.344Z,5.05
2023-02-11T21:23:56.080Z,4.92
2023-02-11T21:26:24.115Z,5.24
2023-02-11T21:28:51.974Z,5.30
2023-02-11T21:31:21.708Z,5.27
2023-02-11T21:33:49.772Z,5.34
2023-02-11T21:36:18.011Z,5.06
2023-02-11T21:38:45.709Z,5.34
2023-02-11T21:41:14.640Z,5.39
2023-02-11T21:43:42.450Z,5.28
2023-02-11T21:46:11.286Z,5.30
2023-02-11T21:48:39.036Z,5.26
2023-02-11T21:51:08.132Z,5.24
2023-02-11T21:53:35.962Z,5.17
2023-02-11T21:56:05.433Z,5.17
2023-02-11T21:58:34.595Z,5.17
2023-02-11T22:01:02.379Z,5.14
2023-02-11T22:03:30.055Z,5.06
2023-02-11T22:05:57.843Z,4.94
2023-02-11T22:08:25.645Z,4.86
2023-02-11T22:10:53.361Z,4.79
2023-02-11T22:13:20.985Z,4.79
2023-02-11T22:16:00.138Z,4.77
2023-02-11T22:18:28.078Z,4.74
2023-02-11T22:21:00.183Z,4.70
2023-02-11T22:23:28.013Z,4.76
2023-02-11T22:25:55.907Z,4.72
2023-02-11T22:28:25.333Z,4.62
2023-02-11T22:30:57.109Z,4.61
2023-02-11T22:33:27.121Z,4.62
2023-02-11T22:35:59.427Z,4.51
2023-02-11T22:38:27.199Z,4.58
2023-02-11T22:40:54.806Z,4.58
2023-02-11T22:43:22.670Z,4.56
2023-02-11T22:45:50.908Z,4.42
2023-02-11T22:48:20.780Z,4.53
2023-02-11T22:50:51.799Z,4.64
2023-02-11T22:53:19.633Z,4.64
2023-02-11T22:55:47.271Z,4.75
2023-02-11T22:58:14.915Z,4.83
2023-02-11T23:00:42.720Z,4.92
2023-02-11T23:03:12.376Z,5.00
2023-02-11T23:05:40.793Z,4.74
2023-02-11T23:08:12.437Z,5.00
2023-02-11T23:10:40.827Z,5.05
2023-02-11T23:13:10.218Z,4.94
2023-02-11T23:15:40.310Z,5.02
2023-02-11T23:18:08.300Z,4.91
2023-02-11T23:20:36.251Z,4.83
2023-02-11T23:23:04.312Z,4.79
2023-02-11T23:25:34.064Z,4.97
2023-02-11T23:28:02.497Z,4.91
2023-02-11T23:30:30.218Z,4.87
2023-02-11T23:32:57.926Z,4.85
2023-02-11T23:35:25.629Z,4.86
2023-02-11T23:37:54.171Z,4.93
2023-02-11T23:40:22.377Z,4.93
2023-02-11T23:42:51.301Z,4.99
2023-02-11T23:45:19.142Z,4.97
2023-02-11T23:47:47.570Z,4.95
2023-02-11T23:50:15.576Z,4.95
2023-02-11T23:52:43.235Z,4.96
2023-02-11T23:55:11.155Z,4.82
2023-02-11T23:57:38.787Z,4.92
